AirNav   Air Wisconsin Up To $57,000 Bonus
 
 1113 users online  

FD19 Lawnwood Medical Center Heliport
Fort Pierce, Florida, USA

GOING TO FORT PIERCE?


FAA INFORMATION EFFECTIVE 02 JANUARY 2020

Location

FAA Identifier: FD19
Lat/Long: 27-25-58.4000N 080-20-45.7500W
27-25.973333N 080-20.762500W
27.4328889,-80.3460417
(estimated)
Elevation: 18 ft. / 5 m (estimated)
Variation: 03W (1985)
Time zone: UTC -5 (UTC -4 during Daylight Saving Time)
Zip code: 34950

Heliport Operations

Heliport use: Private use, MEDICAL.
Activation date: 10/1984
Control tower: no
ARTCC: MIAMI CENTER
FSS: MIAMI FLIGHT SERVICE STATION
Attendance: CONTINUOUS
Wind indicator: yes
Segmented circle: no

Heliport Communications

WX ASOS at FPR (4 nm N): PHONE 772-489-4281
WX ASOS at VRB (14 nm N): PHONE 772-978-9535
WX AWOS-3 at SUA (16 nm SE): PHONE 772-692-7399

Nearby radio navigation aids

VOR radial/distance  VOR name  Freq  Var
TRVr160/16.6TREASURE VORTAC117.3007W

 
NDB name  Hdg/Dist  Freq  Var  ID
FORT PIERCE163/3.527507WFPR ..-. .--. .-.
UNITED004/31.440505WUTX ..- - -..-

Heliport Services

Runway Information

Helipad H1

Dimensions: 70 x 63 ft. / 21 x 19 m
Surface: asphalt
Latitude: 27-25.973333N
Longitude: 080-20.762500W
Elevation: 18.0 ft.
Traffic pattern: leftleft

Heliport Ownership and Management from official FAA records

Ownership: Privately-owned
Owner: LAWNWOOD MEDICAL CENTER
1700 SOUTH 23RD ST
FORT PIERCE, FL 45950
Phone (772) 332-9718
Manager: JOSE H. VALVOURT JR.
1700 SOUTH 23RD ST
FORT PIERCE, FL 34950
Phone (772) 332-9718

Additional Remarks

A52-H1 PLINE MARKED NORTH SIDE.
FOR CD CTC PALM BEACH APCH AT 561-275-1430

Instrument Procedures

There are no published instrument procedures at FD19.

Some nearby airports with instrument procedures:

KFPR - Treasure Coast International Airport (4 nm N)
KVRB - Vero Beach Regional Airport (14 nm N)
KSUA - Witham Field Airport (16 nm SE)
X26 - Sebastian Municipal Airport (24 nm N)
KOBE - Okeechobee County Airport (29 nm W)
 
Loc | Ops | Rwys | IFR | FBO | Links
Com | Nav | Svcs | Stats | Notes


 
Area around FD19 (Lawnwood Medical Center Heliport)
 
Road maps at: MapQuest Bing Google
 
Aerial photo
No photo
 
Sectional chart

 
Airport distance calculator
Flying to Lawnwood Medical Center Heliport? Find the distance to fly.

From to FD19

Sunrise and sunset
Times for 23-Jan-2020
 Local
(UTC-5)
 Zulu
(UTC)
Morning civil twilight06:4811:48
Sunrise07:1212:12
Sunset17:5422:54
Evening civil twilight18:1923:19

Current date and time
Zulu (UTC)  24-Jan-2020 00:36:48
Local (UTC-5)  23-Jan-2020 19:36:48
 
METAR
KFPR 
4nm NW 
240000Z 11006KT 9SM SCT013 SCT020 OVC038 18/16 A3003 RMK AO2 T01830161
KVRB 
14nm N 
232353Z 29003KT 10SM FEW029 OVC039 18/17 A3003
KSUA 
16nm SE 
232347Z 08007KT 5SM RA BKN023 OVC065 19/17 A3004
TAF
KFPR 
4nm NW 
232303Z 2323/2418 VRB06KT 6SM BR VCSH SCT006 BKN028 OVC035 TEMPO 2323/2324 2SM SHRA BR OVC006 FM240000 12005KT P6SM VCSH SCT025 BKN050 FM241400 17008KT P6SM SCT040 BKN250
KVRB 
14nm N 
231720Z 2318/2418 09012KT P6SM VCSH SCT020 BKN035 TEMPO 2318/2320 4SM SHRA SCT008 FM240200 12005KT P6SM VCSH SCT025 BKN040 FM241400 18008KT P6SM SCT040 BKN250 AMD NOT SKED
KSUA 
16nm SE 
232304Z 2323/2418 09006KT 6SM BR VCSH SCT025 BKN035 BKN070 TEMPO 2323/2324 3SM SHRA BR SCT020 BKN025 FM240000 12005KT P6SM VCSH SCT025 BKN050 FM241400 17008KT P6SM SCT040 BKN250
NOTAMs
Click for the latest NOTAMs
NOTAMs are issued by the DoD/FAA and will open in a separate window not controlled by AirNav.

 

 
 

Would you like to see your business listed on this page?

 If your business provides an interesting product or service to pilots, flight crews, aircraft, or users of the Lawnwood Medical Center Heliport, you should consider listing it here.  To start the listing process, click on the button below
 
Add a business
 

Other Pages about Lawnwood Medical Center Heliport

Update a link
 
Copyright © AirNav, LLC. All rights reserved. Privacy Policy  Contact